createdAt,value
2023-05-10T00:00:16.477Z,5.6923076923076925
2023-05-10T00:18:05.196Z,5.8996655518394645
2023-05-10T00:24:27.970Z,5.54180602006689
2023-05-10T00:30:50.144Z,5.665551839464883
2023-05-10T00:37:11.954Z,5.39799331103679
2023-05-10T00:43:33.541Z,6.070234113712375
2023-05-10T00:49:55.485Z,6.133779264214047
2023-05-10T00:56:16.627Z,5.953177257525083
2023-05-10T01:02:38.092Z,5.986622073578595
2023-05-10T01:08:58.935Z,6.157190635451505
2023-05-10T01:15:22.688Z,6.337792642140468
2023-05-10T01:21:42.975Z,6.966555183946488
2023-05-10T01:28:04.046Z,6.565217391304348
2023-05-10T01:40:36.053Z,6.6755852842809364
2023-05-10T01:46:57.641Z,5.9799331103678925
2023-05-10T01:53:18.775Z,6.59866220735786
2023-05-10T01:59:40.710Z,6.7324414715719065
2023-05-10T02:06:03.219Z,6.79933110367893
2023-05-10T02:12:29.519Z,7.117056856187291
2023-05-10T02:18:51.439Z,7.51505016722408
2023-05-10T02:25:16.277Z,7.645484949832776
2023-05-10T02:31:37.618Z,7.829431438127091
2023-05-10T02:44:36.826Z,7.20066889632107
2023-05-10T02:50:59.869Z,7.903010033444816
2023-05-10T02:57:22.646Z,8.210702341137123
2023-05-10T03:03:45.904Z,8.491638795986622
2023-05-10T03:13:56.159Z,8.88628762541806
2023-05-10T03:20:18.982Z,8.010033444816054
2023-05-10T03:26:39.954Z,8.892976588628763
2023-05-10T03:33:01.203Z,8.862876254180602
2023-05-10T03:39:23.828Z,8.642140468227424
2023-05-10T03:49:40.873Z,9.25752508361204
2023-05-10T03:59:29.569Z,9.441471571906355
2023-05-10T04:05:54.439Z,9.869565217391305
2023-05-10T04:13:19.683Z,10.003344481605351
2023-05-10T04:19:43.401Z,10.591973244147157
2023-05-10T04:26:07.346Z,9.979933110367893
2023-05-10T04:33:23.344Z,10.25418060200669
2023-05-10T04:39:44.592Z,10.936454849498327
2023-05-10T04:46:06.299Z,10.966555183946488
2023-05-10T04:52:27.781Z,11.167224080267559
2023-05-10T04:58:48.856Z,11.157190635451505
2023-05-10T05:11:51.684Z,11.923076923076923
2023-05-10T05:19:58.028Z,12.909698996655518
2023-05-10T05:30:53.777Z,12.23076923076923
2023-05-10T05:37:15.169Z,12.240802675585284
2023-05-10T05:46:20.534Z,12.361204013377927
2023-05-10T05:52:44.820Z,12.474916387959865
2023-05-10T06:00:13.649Z,12.68227424749164
2023-05-10T06:06:36.219Z,13.391304347826088
2023-05-10T06:12:57.285Z,13.127090301003344
2023-05-10T06:24:51.231Z,13.431438127090301
2023-05-10T06:31:12.027Z,13.03010033444816
2023-05-10T06:37:33.614Z,13.421404682274247
2023-05-10T06:51:27.046Z,14.471571906354516
2023-05-10T06:58:21.562Z,14.31772575250836
2023-05-10T07:04:42.841Z,13.48494983277592
2023-05-10T07:11:03.123Z,13.217391304347826
2023-05-10T07:27:24.243Z,14.26086956521739
2023-05-10T07:33:44.994Z,14.561872909698996
2023-05-10T07:41:30.666Z,14.74581939799331
2023-05-10T07:47:51.512Z,14.882943143812708
2023-05-10T07:56:24.376Z,15.023411371237458
2023-05-10T08:05:36.721Z,12.876254180602007
2023-05-10T08:21:28.349Z,4.809364548494983
2023-05-10T08:31:28.886Z,2.4147157190635453
2023-05-10T08:37:49.927Z,2.511705685618729
2023-05-10T08:44:11.918Z,2.9966555183946486
2023-05-10T08:51:35.141Z,4.441471571906354
2023-05-10T08:57:56.455Z,5.672240802675585
2023-05-10T09:04:18.326Z,5.130434782608695
2023-05-10T09:10:40.604Z,2.9966555183946486
2023-05-10T09:17:02.438Z,1.806020066889632
2023-05-10T09:23:24.481Z,1.2441471571906355
2023-05-10T09:29:45.941Z,1.3578595317725752
2023-05-10T09:42:05.791Z,4.230769230769231
2023-05-10T09:48:28.145Z,5.287625418060201
2023-05-10T09:59:10.346Z,4.357859531772576
2023-05-10T10:05:33.915Z,4.304347826086956
2023-05-10T10:11:56.763Z,3.903010033444816
2023-05-10T10:18:19.451Z,3.882943143812709
2023-05-10T10:30:38.881Z,1.6421404682274248
2023-05-10T10:37:00.504Z,1.7926421404682273
2023-05-10T10:43:23.961Z,2.177257525083612
2023-05-10T10:49:45.986Z,2.130434782608696
2023-05-10T10:56:38.150Z,2.1672240802675584
2023-05-10T11:03:00.716Z,2.3979933110367893
2023-05-10T11:09:23.145Z,2.1638795986622075
2023-05-10T11:15:44.878Z,2.391304347826087
2023-05-10T11:22:07.175Z,2.2441471571906355
2023-05-10T11:34:24.445Z,2.1438127090301005
2023-05-10T11:40:46.611Z,2.6588628762541804
2023-05-10T11:47:10.010Z,3.260869565217391
2023-05-10T11:53:32.008Z,3.1137123745819397
2023-05-10T11:59:54.174Z,1.6989966555183946
2023-05-10T12:06:16.232Z,0.27424749163879597
2023-05-10T12:12:38.442Z,0.09364548494983277
2023-05-10T12:19:01.503Z,0.06354515050167224
2023-05-10T12:25:28.235Z,0.05351170568561873
2023-05-10T12:31:56.516Z,0.23076923076923078
2023-05-10T12:38:21.774Z,0.056856187290969896
2023-05-10T12:45:00.455Z,0.05016722408026756
2023-05-10T12:51:23.186Z,0.10702341137123746
2023-05-10T13:03:10.607Z,0.9063545150501672
2023-05-10T13:10:42.020Z,1.3478260869565217
2023-05-10T13:19:24.118Z,2.7859531772575252
2023-05-10T13:25:45.085Z,4.083612040133779
2023-05-10T13:32:07.113Z,2.8561872909698995
2023-05-10T13:38:30.123Z,3.060200668896321
2023-05-10T13:44:52.482Z,3.491638795986622
2023-05-10T13:51:25.190Z,3.5551839464882944
2023-05-10T14:08:36.726Z,3.220735785953177
2023-05-10T14:15:03.629Z,4.010033444816053
2023-05-10T14:27:38.397Z,4.505016722408027
2023-05-10T14:34:02.132Z,4.8996655518394645
2023-05-10T14:40:27.821Z,4.4280936454849495
2023-05-10T14:48:09.883Z,4.488294314381271
2023-05-10T14:54:36.869Z,4.494983277591973
2023-05-10T15:01:02.250Z,4.294314381270903
2023-05-10T15:07:28.728Z,3.9732441471571907
2023-05-10T15:13:58.143Z,3.367892976588629
2023-05-10T15:20:31.726Z,3.2474916387959865
2023-05-10T15:26:53.068Z,3.2642140468227425
2023-05-10T15:33:15.195Z,4.451505016722408
2023-05-10T15:41:39.965Z,4.311036789297659
2023-05-10T15:48:01.840Z,3.20066889632107
2023-05-10T15:54:23.689Z,1.8494983277591974
2023-05-10T16:00:45.782Z,1.5418060200668897
2023-05-10T16:07:09.305Z,0.745819397993311
2023-05-10T16:13:32.115Z,1.140468227424749
2023-05-10T16:19:55.838Z,1.394648829431438
2023-05-10T16:27:52.658Z,2.0535117056856187
2023-05-10T16:39:22.104Z,1.5752508361204014
2023-05-10T16:45:44.940Z,1.9464882943143813
2023-05-10T16:56:44.589Z,1.7391304347826086
2023-05-10T17:03:08.050Z,1.5986622073578596
2023-05-10T17:09:30.387Z,1.6923076923076923
2023-05-10T17:15:53.532Z,2.4949832775919734
2023-05-10T17:23:32.909Z,2.725752508361204
2023-05-10T17:35:35.483Z,3.391304347826087
2023-05-10T17:41:57.752Z,3.7324414715719065
2023-05-10T17:48:26.479Z,4.076923076923077
2023-05-10T18:00:06.216Z,2.719063545150502
2023-05-10T18:06:28.866Z,2.040133779264214
2023-05-10T18:12:50.811Z,3.551839464882943
2023-05-10T18:19:14.954Z,3.5618729096989967
2023-05-10T18:25:37.621Z,2.4749163879598663
2023-05-10T18:32:09.406Z,2.0133779264214047
2023-05-10T18:38:34.963Z,1.9264214046822743
2023-05-10T18:44:57.287Z,1.7424749163879598
2023-05-10T18:51:19.345Z,2.0635451505016724
2023-05-10T18:57:42.972Z,2.0133779264214047
2023-05-10T19:04:05.861Z,2.2441471571906355
2023-05-10T19:20:00.254Z,3.25752508361204
2023-05-10T19:26:20.238Z,2.190635451505017
2023-05-10T19:32:40.195Z,2.2474916387959865
2023-05-10T19:39:00.873Z,2.9765886287625416
2023-05-10T19:45:20.379Z,1.8662207357859533
2023-05-10T19:51:44.595Z,2.5418060200668897
2023-05-10T19:59:39.604Z,1.9130434782608696
2023-05-10T20:05:59.337Z,1.9632107023411371
2023-05-10T20:20:26.995Z,2.234113712374582
2023-05-10T20:28:40.995Z,2.6187290969899664
2023-05-10T20:39:41.027Z,3.6220735785953178
2023-05-10T20:46:01.527Z,3.5852842809364547
2023-05-10T20:52:30.055Z,4.39799331103679
2023-05-10T20:58:50.254Z,4.545150501672241
2023-05-10T21:05:15.232Z,4.966555183946488
2023-05-10T21:11:36.226Z,4.234113712374582
2023-05-10T21:17:55.334Z,4.765886287625418
2023-05-10T21:24:17.306Z,4.769230769230769
2023-05-10T21:36:34.151Z,4.735785953177258
2023-05-10T21:42:56.680Z,5.304347826086956
2023-05-10T21:51:16.222Z,5.137123745819398
2023-05-10T21:57:37.212Z,4.822742474916388
2023-05-10T22:06:52.686Z,5.384615384615385
2023-05-10T22:13:13.486Z,5.438127090301004
2023-05-10T22:19:32.332Z,5.966555183946488
2023-05-10T22:25:50.829Z,5.903010033444816
2023-05-10T22:33:29.433Z,6.2040133779264215
2023-05-10T22:39:48.325Z,6.7725752508361206
2023-05-10T22:46:07.627Z,6.167224080267559
2023-05-10T22:52:26.782Z,7.023411371237458
2023-05-10T22:58:45.795Z,6.785953177257525
2023-05-10T23:05:04.870Z,7.668896321070235
2023-05-10T23:15:48.876Z,8.244147157190636
2023-05-10T23:25:36.233Z,8.819397993311037
2023-05-10T23:31:55.140Z,9.294314381270903
2023-05-10T23:38:14.246Z,8.809364548494983
2023-05-10T23:44:33.568Z,9.652173913043478
2023-05-10T23:56:25.449Z,9.421404682274247
